YPPD/PHE METAR and TAF weather

Enter ICAO airport designator
Station Type Date Time Source
YPPD METAR 2019/10/23 02:30 UTC NOAA

YPPD 230230Z AUTO 17014KT 9999 // NCD 40/06 Q1010 RF00.0/000.0


Station Type Date Time Source
YPPD Decoded METAR 2019/10/23 02:30 UTC NOAA

Port Hedland Pardoo, Australia (YPPD) 20-06S 119-34E 10M
Oct 22, 2019 - 10:30 PM EDT / 2019.10.23 0230 UTC
Wind: from the S (170 degrees) at 16 MPH (14 KT):0
Visibility: greater than 7 mile(s):0
Temperature: 104 F (40 C)
Dew Point: 42 F (6 C)
Relative Humidity: 12%
Pressure (altimeter): 29.83 in. Hg (1010 hPa)
ob: YPPD 230230Z AUTO 17014KT 9999 // NCD 40/06 Q1010 RF00.0/000.0
cycle: 2

Station Type Date Time Source
YPPD TAF 2019/10/22 18:36 UTC NOAA

TAF YPPD 221712Z 2218/2318 20010KT CAVOK
FM230500 30014KT CAVOK
FM231600 24007KT CAVOK

Example: see airport list